x

Portlock Bank- 76nm Ene Of Kodiak, Ak (46080) Wave Buoy

4:50pm - Tue 3rd Mar 2015 All times are AKST. -9 hours from GMT.

  • Sig Wave height 6.6ft
  • Peak Period 8s
  • Average Period 6s
  • Wind
    4mph, 7mph gusts
  • Sea Temp 44°f
  • Air Temp 41°f
  • Sea Pressure 1015.5mb
  • Portlock Bank- 76nm Ene Of Kodiak, Ak
  • Portlock Bank- 76nm Ene Of Kodiak, Ak

More Historic Weather Station data

Upgrade to MSW Pro to gain access to the past 30 days of data for over 8000 Wavebouys and Weather Stations around the globe.

Join Pro

Comparision Forecast

View Surf forecast
   
Tue 03/03 4:50pm 6.5ft 8s 6s 4 7 mph 1015.5mb 44f 41f
3:50pm 7ft 7s 6s 11 16 mph 1015.7mb 44f 42f
2:50pm 6.5ft 7s 6s 11 13 mph 1016.1mb 44f 41f
1:50pm 7ft 8s 6s 11 13 mph 1016.2mb 44f 41f
12:50pm 7ft 8s 6s 11 16 mph 1016.4mb 44f 41f
11:50am 7ft 8s 6s 13 18 mph 1016.4mb 44f 41f
10:50am 8ft 8s 6s 16 20 mph 1016mb 44f 41f
9:50am 8ft 8s 6s 16 20 mph 1015.9mb 44f 41f
8:50am 8ft 8s 6s 20 27 mph 1015.5mb 44f 41f
7:50am 8ft 9s 6s 16 20 mph 1014.8mb 44f 41f
6:50am 8ft 7s 6s 18 20 mph 1014.5mb 44f 42f
5:50am 8ft 7s 6s 18 20 mph 1014.1mb 44f 42f
4:50am 8.5ft 8s 6s 16 20 mph 1013.6mb 44f 43f
3:50am 8.5ft 7s 6s 20 25 mph 1013.4mb 44f 43f
2:50am 7.5ft 7s 6s 20 27 mph 1013mb 44f 43f
1:50am 7.5ft 8s 6s 20 22 mph 1012.5mb 43f 43f
12:50am 6.5ft 7s 5s 18 20 mph 1012.4mb 44f 43f
Mon 03/02 11:50pm 6.5ft 7s 6s 16 20 mph 1011.7mb 44f 43f
10:50pm 8ft 8s 6s 16 18 mph 1011.1mb 44f 43f
9:50pm 8.5ft 7s 6s 13 18 mph 1010.6mb 44f 43f
8:50pm 8.5ft 7s 6s 16 20 mph 1010.8mb 44f 43f
7:50pm 9.5ft 8s 6s 18 22 mph 1010.4mb 44f 43f
6:50pm 9ft 7s 6s 18 22 mph 1010.2mb 44f 44f
5:50pm 10ft 7s 6s 25 27 mph 1010.3mb 44f 44f
4:50pm 9ft 7s 6s 25 29 mph 1011.2mb 44f 44f
3:50pm 8.5ft 7s 5s 25 31 mph 1012.1mb 44f 44f
2:50pm 8ft 7s 5s 27 31 mph 1013mb 44f 44f
1:50pm 7ft 6s 5s 25 31 mph 1013.9mb 44f 44f
12:50pm 6.5ft 6s 5s 25 29 mph 1015.1mb 44f 43f
11:50am 6.5ft 6s 5s 25 29 mph 1016.2mb 44f 43f
10:50am 6ft 6s 5s 25 29 mph 1017.2mb 44f 43f
9:50am 5.5ft 6s 4s 25 29 mph 1018mb 44f 43f
8:50am 6ft 6s 4s 22 27 mph 1018.8mb 44f 43f
7:50am 5.5ft 5s 4s 25 29 mph 1019.5mb 44f 43f
6:50am 5.5ft 5s 4s 25 29 mph 1020.7mb 44f 42f
5:50am 4.5ft 5s 4s 25 27 mph 1021.8mb 44f 42f
4:50am 5ft 5s 4s 22 29 mph 1022.9mb 44f 42f
3:50am 4.5ft 5s 4s 20 27 mph 1024mb 44f 41f
2:50am 4ft 4s 4s 22 27 mph 1024.9mb 44f 41f
1:50am 3.5ft 4s 4s 20 22 mph 1025.8mb 44f 41f
12:50am 3ft 4s 4s 20 22 mph 1026.5mb 44f 41f
Sun 03/01 11:50pm 2.5ft 6s 4s 18 20 mph 1027.4mb 44f 41f
10:50pm 2.5ft 6s 4s 16 18 mph 1028.2mb 44f 40f
9:50pm 2.5ft 6s 4s 13 18 mph 1028.7mb 44f 40f
8:50pm 2.5ft 7s 4s 13 16 mph 1029.5mb 44f 40f
7:50pm 2.5ft 7s 5s 11 13 mph 1029.9mb 44f 40f
6:50pm 2.5ft 6s 5s 9 11 mph 1030.1mb 44f 39f
5:50pm 2.5ft 8s 5s 9 11 mph 1030.3mb 44f 39f
4:50pm 2.5ft 8s 5s 9 11 mph 1030.6mb 44f 39f
3:50pm 3.5ft 5s 5s 7 9 mph 1031.1mb 44f 39f
2:50pm 3.5ft 5s 5s 7 9 mph 1031.5mb 44f 39f
1:50pm 3ft 5s 5s 4 9 mph 1031.6mb 44f 40f
12:50pm 3.5ft 7s 5s 2 7 mph 1031.7mb 44f 40f
11:50am 4ft 6s 5s 2
mph
1031.5mb 44f 40f
10:50am 3.5ft 6s 6s 4 7 mph 1031.5mb 44f 40f
9:50am 4ft 6s 5s 4 7 mph 1031.3mb 44f 40f
8:50am 4.5ft 6s 5s 2 4 mph 1030.9mb 44f 41f
7:50am 4.5ft 7s 5s 2 4 mph 1030.7mb 44f 41f
6:50am 3.5ft 8s 5s 2 4 mph 1030.5mb 44f 41f
5:50am 3ft 8s 5s 2 7 mph 1030.4mb 44f 41f
4:50am 3.5ft 8s 5s 7 11 mph 1030mb 44f 42f
3:50am 3.5ft 8s 5s 9 13 mph 1029.9mb 44f 42f
2:50am 3.5ft 8s 6s 11 16 mph 1029.9mb 44f 42f
1:50am 3.5ft 8s 5s 9 11 mph 1029.9mb 44f 42f
12:50am 3.5ft 8s 5s 9 11 mph 1029mb 44f 42f
Sat 02/28 11:50pm 3.5ft 8s 5s 11 16 mph 1028.6mb 44f 42f
10:50pm 4ft 8s 6s 11 13 mph 1027.9mb 44f 42f
9:50pm 4.5ft 8s 6s 9 13 mph 1027.3mb 44f 43f
8:50pm 4.5ft 8s 6s 11 13 mph 1026.7mb 44f 42f
7:50pm 5ft 8s 6s 9
mph
1025mb 44f 42f
6:50pm 5.5ft 8s 7s 11 13 mph 1024.5mb 44f 42f
5:50pm 5ft 8s 6s 9
mph
1024.2mb 44f 43f
4:50pm 5.5ft 8s 7s 2 4 mph 1023.8mb 44f 43f
3:50pm 5ft 8s 6s 4
mph
1023.6mb 44f 43f
2:50pm 5ft 8s 6s  -  mph 1024.2mb 44f 43f
1:50pm 6ft 8s 7s 2 4 mph 1024mb 44f 43f
12:50pm 5ft 8s 6s 7 9 mph 1024.1mb 44f 43f
11:50am 5.5ft 8s 6s 11 13 mph 1023.8mb 44f 43f
10:50am 5.5ft 8s 6s 9 11 mph 1024mb 44f 43f
9:50am 5.5ft 8s 5s 11 13 mph 1024mb 44f 42f
8:50am 5ft 8s 5s 16 20 mph 1023.3mb 44f 42f
7:50am 5.5ft 7s 5s 16 18 mph 1023.8mb 44f 42f
6:50am 5.5ft 7s 5s 13 16 mph 1024.4mb 44f 42f
5:50am 5ft 8s 5s 16 18 mph 1024.4mb 44f 42f
4:50am 4.5ft 5s 5s 16 18 mph 1024.6mb 44f 42f
3:50am 4.5ft 5s 4s 16 18 mph 1025mb 44f 42f